Relevés horaires Beauvechain (Belgique)


Relevés horaires à Beauvechain - Vendredi 27 Juill. 2018
Heure UTC1 Température [°C] Vent [km/h] Hum. [%] Pres.4 [hPa] Visi. [Km] Nébu. [octa] Préc.5 [mm] Cond.
2m. Res. Ros. Dir.2 Vit. Moy. Raf.3
23:00 23.2 23.2 15.2 NO 5.6 -- 16.7 61 1008.1(0.5/3h) 20 -- -- --
22:00 25.2 25.2 14.6 O 11.1 -- 20.4 52 1008.2(0.7/3h) 20 -- -- --
21:00 26.2 26.2 14.4 NNO 3.7 -- 7.4 48 1007.3(0.0/3h) 20 -- -- --
20:00 27.6 27.6 14.0 NNO 1.9 -- 3.7 43 1007.3(-0.8/3h) 20 -- -- --
19:00 27.5 27.5 15.4 NNO 1.9 -- 1.9 48 1007.3(-1.5/3h) 20 -- -- --
18:00 29.5 29.5 14.7 NNO 1.9 -- 13.0 41 1007.2(-1.2/3h) 20 -- -- --
17:00 29.2 29.2 13.3 OSO 3.7 -- 13.0 38 1008.1(-1.1/3h) 20 -- -- --
16:00 30.7 30.7 11.8 NNO 1.9 -- 9.3 31 1008.7(-0.9/3h) 20 5/8 -- Des éclairs sont visibles au moment de l'observation, ou au cours des 15 minutes qui précèdent l'observation, mais le tonnerre n'est pas perceptible
15:00 35.3 35.3 9.5 ENE 5.6 -- 11.1 21 1008.2(-1.8/3h) 20 4/8 -- --
14:00 34.5 34.5 9.7 ENE 3.7 -- 11.1 22 1009(-1.7/3h) 20 4/8 -- --
13:00 35.1 35.1 11.5 ENE 5.6 -- 11.1 24 1009.6(-1.5/3h) 20 4/8 -- --
12:00 34.6 34.6 10.7 ESE 3.7 -- 9.3 23 1010.2(-1.2/3h) 20 4/8 -- --
11:00 34.2 34.2 11.6 NNO 1.9 -- 9.3 25 1010.7(-1.0/3h) 20 2/8 -- --
10:00 33.3 33.3 12.7 SE 3.7 -- 9.3 29 1011.2(-0.6/3h) 20 3/8 -- --
09:00 30.9 30.9 13.5 SE 3.7 -- 7.4 35 1011.7(0.0/3h) 20 5/8 -- --
08:00 27.7 27.7 15.1 NNO 1.9 -- 5.6 46 1012.1(0.3/3h) 20 6/8 -- --
07:00 25.8 25.8 15.4 ESE 3.7 -- 5.6 53 1012.2(0.4/3h) 20 5/8 -- --
06:00 25.5 25.5 14.1 NNO 1.9 -- 11.1 49 1012(0.0/3h) 20 4/8 -- --
05:00 24.6 24.6 13.7 ESE 3.7 -- 7.4 51 1012(-0.6/3h) 20 4/8 -- --
04:00 24.6 24.6 13.8 NNO 1.9 -- 3.7 51 1011.7(-0.8/3h) 20 5/8 -- --
03:00 24.8 24.8 13.7 NNO 1.9 -- 11.1 50 1012(-0.9/3h) 20 -- -- --
02:00 22.6 22.6 14.6 OSO 3.7 -- 11.1 61 1012.7(-0.5/3h) 20 -- -- --
01:00 24.7 24.7 14.5 NNO 1.9 -- 5.6 53 1012.6(-0.6/3h) 20 -- -- --
00:00 26.1 26.1 14.4 NNO 1.9 -- 7.4 49 1012.8(-0.2/3h) 20 -- -- --

1 Coordinated Universal Time. Actuellement il est 18:00 locale et 17:00 UTC.

2 Le vent souffle depuis la direction indiquée vers la direction oposée.

3 Les rafales max. sont disponible 40 min après l'heure du relevé.

4 Pour les stations d'altitude (plus de 600m) le géopotentiel du niveau le plus proche de la pression obligatoire est indiqué.

5 Les stations disposant d'un diffuseur peuvent indiquer "trace". Cela signifie que des précipitations ont touchés le sol mais que la quantité est inférieure à 0.1 mm.

Récapitulatif de la journée
Température [°C] Vent [km/h] Ensoleillement4 [h] Precipitations totale5 [mm] Pression [Hpa]
Min1 Max.2 Moy.3 Max. Min Max.
22.6 35.8 0 20.4 0 h 0 min 0 1007.2 1012.8

1 Température minimale relevée entre 18:00 UTC la veille et 18:00 UTC le jour donné.

2 Température maximale relevée entre 06:00 UTC le jour donné et 06:00 UTC le lendemain.

3 Vent moyen de la journée basé sur les relevés horaires.

4 Ensoleillement en heures relevé entre 06:00 UTC la veille et 06:00 UTC le jour donné.

5 Précipitations totales tombées entre 06:00 UTC la jour donné et 06:00 UTC le lendemain.

Graphiques horaires